Saint Columbans, Nebraska
Current Conditions -  °F | °C
As of 5:58 AM on Friday 31 Oct 2014 (Local Time) from KOFF Reporting Station
Clear Clear  
Wind Chill: 23°   Ceiling: Unl
Heat Index: 31°   Visibility: 10mi
Dew Point: 21°   Wind: 8mph
Humidity: 67%   Direction: 350°N
Pressure: 30.5"   Gusts: NA
Location:  41.1°N, 95.87°W
Report Text: KOFF 311058Z AUTO 35007KT 10SM CLR M01/M06 A3050 RMK AO2 SLP339 T10071061
Loading
Personal Weather Stations






























Interactive Weather Map
Tropical Storm Tracking
New forecast layout! Learn more

10-Day Weather Forecast

Advertisements
Track Severe Weather on mobile